sensor_id;sensor_type;location;lat;lon;timestamp;P1;durP1;ratioP1;P2;durP2;ratioP2
82163;SDS011;71736;38.734;-9.138;2023-11-18T00:01:19;18.00;;;11.70;;
82163;SDS011;71736;38.734;-9.138;2023-11-18T00:03:44;16.50;;;9.70;;
82163;SDS011;71736;38.734;-9.138;2023-11-18T00:06:10;19.00;;;9.30;;
82163;SDS011;71736;38.734;-9.138;2023-11-18T00:08:35;21.30;;;12.90;;
82163;SDS011;71736;38.734;-9.138;2023-11-18T00:11:01;17.50;;;10.80;;
82163;SDS011;71736;38.734;-9.138;2023-11-18T00:13:26;16.30;;;9.80;;
82163;SDS011;71736;38.734;-9.138;2023-11-18T00:15:52;19.40;;;10.90;;
82163;SDS011;71736;38.734;-9.138;2023-11-18T00:18:18;18.30;;;11.20;;
82163;SDS011;71736;38.734;-9.138;2023-11-18T00:20:44;17.00;;;10.70;;
82163;SDS011;71736;38.734;-9.138;2023-11-18T00:23:10;19.90;;;11.90;;
82163;SDS011;71736;38.734;-9.138;2023-11-18T00:25:36;19.30;;;12.90;;
82163;SDS011;71736;38.734;-9.138;2023-11-18T00:28:05;18.00;;;11.00;;
82163;SDS011;71736;38.734;-9.138;2023-11-18T00:30:32;17.30;;;10.20;;
82163;SDS011;71736;38.734;-9.138;2023-11-18T00:32:59;20.00;;;11.50;;
82163;SDS011;71736;38.734;-9.138;2023-11-18T00:35:24;21.20;;;12.00;;
82163;SDS011;71736;38.734;-9.138;2023-11-18T00:37:50;19.10;;;11.10;;
82163;SDS011;71736;38.734;-9.138;2023-11-18T00:40:15;23.30;;;11.90;;
82163;SDS011;71736;38.734;-9.138;2023-11-18T00:42:43;21.00;;;12.20;;
82163;SDS011;71736;38.734;-9.138;2023-11-18T00:45:10;20.90;;;12.50;;
82163;SDS011;71736;38.734;-9.138;2023-11-18T00:47:38;19.50;;;11.50;;
82163;SDS011;71736;38.734;-9.138;2023-11-18T00:50:06;21.40;;;11.90;;
82163;SDS011;71736;38.734;-9.138;2023-11-18T00:52:33;18.90;;;10.70;;
82163;SDS011;71736;38.734;-9.138;2023-11-18T00:54:59;16.30;;;10.60;;
82163;SDS011;71736;38.734;-9.138;2023-11-18T00:57:26;15.60;;;8.80;;
82163;SDS011;71736;38.734;-9.138;2023-11-18T00:59:52;15.60;;;9.20;;
82163;SDS011;71736;38.734;-9.138;2023-11-18T01:02:17;18.70;;;10.00;;
82163;SDS011;71736;38.734;-9.138;2023-11-18T01:04:43;18.10;;;9.90;;
82163;SDS011;71736;38.734;-9.138;2023-11-18T01:07:11;18.00;;;9.40;;
82163;SDS011;71736;38.734;-9.138;2023-11-18T01:09:37;19.00;;;10.60;;
82163;SDS011;71736;38.734;-9.138;2023-11-18T01:14:31;18.90;;;9.90;;
82163;SDS011;71736;38.734;-9.138;2023-11-18T01:16:57;20.50;;;10.70;;
82163;SDS011;71736;38.734;-9.138;2023-11-18T01:19:23;19.00;;;10.10;;
82163;SDS011;71736;38.734;-9.138;2023-11-18T01:21:48;18.10;;;11.20;;
82163;SDS011;71736;38.734;-9.138;2023-11-18T01:24:14;17.70;;;10.20;;
82163;SDS011;71736;38.734;-9.138;2023-11-18T01:26:41;20.80;;;12.20;;
82163;SDS011;71736;38.734;-9.138;2023-11-18T01:29:07;21.80;;;11.90;;
82163;SDS011;71736;38.734;-9.138;2023-11-18T01:31:32;22.10;;;11.50;;
82163;SDS011;71736;38.734;-9.138;2023-11-18T01:33:58;20.30;;;11.10;;
82163;SDS011;71736;38.734;-9.138;2023-11-18T01:36:25;20.30;;;10.90;;
82163;SDS011;71736;38.734;-9.138;2023-11-18T01:38:50;17.60;;;10.40;;
82163;SDS011;71736;38.734;-9.138;2023-11-18T01:41:16;16.80;;;9.40;;
82163;SDS011;71736;38.734;-9.138;2023-11-18T01:43:41;16.10;;;9.30;;
82163;SDS011;71736;38.734;-9.138;2023-11-18T01:46:11;15.60;;;9.50;;
82163;SDS011;71736;38.734;-9.138;2023-11-18T01:48:38;17.20;;;9.80;;
82163;SDS011;71736;38.734;-9.138;2023-11-18T01:51:07;17.50;;;10.60;;
82163;SDS011;71736;38.734;-9.138;2023-11-18T01:53:35;18.60;;;10.20;;
82163;SDS011;71736;38.734;-9.138;2023-11-18T01:56:02;18.90;;;10.50;;
82163;SDS011;71736;38.734;-9.138;2023-11-18T01:58:30;16.80;;;9.40;;
82163;SDS011;71736;38.734;-9.138;2023-11-18T02:00:56;17.60;;;10.40;;
82163;SDS011;71736;38.734;-9.138;2023-11-18T02:03:22;15.60;;;9.70;;
82163;SDS011;71736;38.734;-9.138;2023-11-18T02:05:48;15.70;;;9.80;;
82163;SDS011;71736;38.734;-9.138;2023-11-18T02:08:13;15.60;;;8.60;;
82163;SDS011;71736;38.734;-9.138;2023-11-18T02:10:44;15.90;;;10.20;;
82163;SDS011;71736;38.734;-9.138;2023-11-18T02:13:13;14.40;;;8.20;;
82163;SDS011;71736;38.734;-9.138;2023-11-18T02:15:58;16.30;;;9.40;;
82163;SDS011;71736;38.734;-9.138;2023-11-18T02:18:24;14.70;;;9.20;;
82163;SDS011;71736;38.734;-9.138;2023-11-18T02:20:52;15.80;;;9.40;;
82163;SDS011;71736;38.734;-9.138;2023-11-18T02:23:19;17.00;;;9.70;;
82163;SDS011;71736;38.734;-9.138;2023-11-18T02:25:47;15.90;;;8.60;;
82163;SDS011;71736;38.734;-9.138;2023-11-18T02:28:13;15.40;;;9.00;;
82163;SDS011;71736;38.734;-9.138;2023-11-18T02:30:39;15.80;;;9.20;;
82163;SDS011;71736;38.734;-9.138;2023-11-18T02:33:16;16.20;;;9.80;;
82163;SDS011;71736;38.734;-9.138;2023-11-18T02:38:29;15.10;;;9.40;;
82163;SDS011;71736;38.734;-9.138;2023-11-18T02:40:57;17.20;;;10.60;;
82163;SDS011;71736;38.734;-9.138;2023-11-18T02:43:24;16.90;;;9.50;;
82163;SDS011;71736;38.734;-9.138;2023-11-18T02:45:50;15.50;;;9.00;;
82163;SDS011;71736;38.734;-9.138;2023-11-18T02:48:16;15.60;;;9.30;;
82163;SDS011;71736;38.734;-9.138;2023-11-18T02:53:08;17.20;;;9.60;;
82163;SDS011;71736;38.734;-9.138;2023-11-18T02:55:34;16.10;;;9.30;;
82163;SDS011;71736;38.734;-9.138;2023-11-18T02:58:00;15.40;;;8.90;;
82163;SDS011;71736;38.734;-9.138;2023-11-18T03:02:53;16.50;;;9.20;;
82163;SDS011;71736;38.734;-9.138;2023-11-18T03:05:19;18.70;;;10.10;;
82163;SDS011;71736;38.734;-9.138;2023-11-18T03:07:49;16.30;;;9.10;;
82163;SDS011;71736;38.734;-9.138;2023-11-18T03:10:18;15.30;;;8.90;;
82163;SDS011;71736;38.734;-9.138;2023-11-18T03:12:47;15.10;;;9.20;;
82163;SDS011;71736;38.734;-9.138;2023-11-18T03:15:13;17.10;;;9.00;;
82163;SDS011;71736;38.734;-9.138;2023-11-18T03:17:43;16.10;;;9.00;;
82163;SDS011;71736;38.734;-9.138;2023-11-18T03:20:16;15.20;;;8.80;;
82163;SDS011;71736;38.734;-9.138;2023-11-18T03:22:43;14.20;;;8.80;;
82163;SDS011;71736;38.734;-9.138;2023-11-18T03:25:12;17.80;;;10.40;;
82163;SDS011;71736;38.734;-9.138;2023-11-18T03:27:38;17.00;;;10.20;;
82163;SDS011;71736;38.734;-9.138;2023-11-18T03:30:05;16.70;;;9.90;;
82163;SDS011;71736;38.734;-9.138;2023-11-18T03:32:34;14.70;;;9.00;;
82163;SDS011;71736;38.734;-9.138;2023-11-18T03:37:34;16.00;;;9.20;;
82163;SDS011;71736;38.734;-9.138;2023-11-18T03:40:07;16.20;;;9.20;;
82163;SDS011;71736;38.734;-9.138;2023-11-18T03:42:33;15.20;;;8.60;;
82163;SDS011;71736;38.734;-9.138;2023-11-18T03:45:02;13.90;;;9.00;;
82163;SDS011;71736;38.734;-9.138;2023-11-18T03:47:28;14.50;;;8.40;;
82163;SDS011;71736;38.734;-9.138;2023-11-18T03:49:55;14.50;;;8.20;;
82163;SDS011;71736;38.734;-9.138;2023-11-18T03:52:20;17.40;;;8.90;;
82163;SDS011;71736;38.734;-9.138;2023-11-18T03:54:46;15.10;;;9.00;;
82163;SDS011;71736;38.734;-9.138;2023-11-18T03:57:12;18.20;;;9.40;;
82163;SDS011;71736;38.734;-9.138;2023-11-18T03:59:40;14.10;;;8.40;;
82163;SDS011;71736;38.734;-9.138;2023-11-18T04:02:06;15.00;;;8.80;;
82163;SDS011;71736;38.734;-9.138;2023-11-18T04:04:32;15.80;;;8.50;;
82163;SDS011;71736;38.734;-9.138;2023-11-18T04:06:58;17.20;;;8.90;;
82163;SDS011;71736;38.734;-9.138;2023-11-18T04:09:26;15.80;;;9.50;;
82163;SDS011;71736;38.734;-9.138;2023-11-18T04:11:52;15.60;;;9.20;;
82163;SDS011;71736;38.734;-9.138;2023-11-18T04:14:18;15.20;;;9.20;;
82163;SDS011;71736;38.734;-9.138;2023-11-18T04:16:47;17.00;;;9.40;;
82163;SDS011;71736;38.734;-9.138;2023-11-18T04:19:15;15.30;;;9.20;;
82163;SDS011;71736;38.734;-9.138;2023-11-18T04:21:40;17.40;;;9.60;;
82163;SDS011;71736;38.734;-9.138;2023-11-18T04:24:06;15.10;;;8.20;;
82163;SDS011;71736;38.734;-9.138;2023-11-18T04:26:32;14.80;;;8.20;;
82163;SDS011;71736;38.734;-9.138;2023-11-18T04:28:58;14.10;;;8.10;;
82163;SDS011;71736;38.734;-9.138;2023-11-18T04:31:24;15.70;;;8.50;;
82163;SDS011;71736;38.734;-9.138;2023-11-18T04:33:50;16.80;;;9.10;;
82163;SDS011;71736;38.734;-9.138;2023-11-18T04:36:15;16.50;;;8.90;;
82163;SDS011;71736;38.734;-9.138;2023-11-18T04:38:41;17.60;;;8.30;;
82163;SDS011;71736;38.734;-9.138;2023-11-18T04:41:08;20.30;;;10.00;;
82163;SDS011;71736;38.734;-9.138;2023-11-18T04:43:34;18.90;;;9.50;;
82163;SDS011;71736;38.734;-9.138;2023-11-18T04:46:00;16.60;;;9.50;;
82163;SDS011;71736;38.734;-9.138;2023-11-18T04:48:25;17.50;;;9.10;;
82163;SDS011;71736;38.734;-9.138;2023-11-18T04:50:51;16.10;;;9.20;;
82163;SDS011;71736;38.734;-9.138;2023-11-18T04:53:17;14.30;;;8.60;;
82163;SDS011;71736;38.734;-9.138;2023-11-18T04:55:42;14.70;;;8.40;;
82163;SDS011;71736;38.734;-9.138;2023-11-18T04:58:08;13.30;;;8.30;;
82163;SDS011;71736;38.734;-9.138;2023-11-18T05:00:38;13.80;;;8.30;;
82163;SDS011;71736;38.734;-9.138;2023-11-18T05:03:04;14.10;;;7.20;;
82163;SDS011;71736;38.734;-9.138;2023-11-18T05:05:35;14.20;;;7.70;;
82163;SDS011;71736;38.734;-9.138;2023-11-18T05:08:03;15.80;;;8.50;;
82163;SDS011;71736;38.734;-9.138;2023-11-18T05:10:32;15.90;;;7.80;;
82163;SDS011;71736;38.734;-9.138;2023-11-18T05:15:24;14.00;;;8.00;;
82163;SDS011;71736;38.734;-9.138;2023-11-18T05:17:53;14.70;;;9.20;;
82163;SDS011;71736;38.734;-9.138;2023-11-18T05:20:19;13.40;;;7.70;;
82163;SDS011;71736;38.734;-9.138;2023-11-18T05:22:45;18.80;;;8.60;;
82163;SDS011;71736;38.734;-9.138;2023-11-18T05:25:10;16.50;;;9.70;;
82163;SDS011;71736;38.734;-9.138;2023-11-18T05:27:37;15.30;;;8.20;;
82163;SDS011;71736;38.734;-9.138;2023-11-18T05:30:02;15.60;;;8.80;;
82163;SDS011;71736;38.734;-9.138;2023-11-18T05:32:30;14.50;;;8.10;;
82163;SDS011;71736;38.734;-9.138;2023-11-18T05:34:55;13.90;;;7.70;;
82163;SDS011;71736;38.734;-9.138;2023-11-18T05:39:48;13.60;;;7.40;;
82163;SDS011;71736;38.734;-9.138;2023-11-18T05:42:18;12.50;;;7.30;;
82163;SDS011;71736;38.734;-9.138;2023-11-18T05:44:44;13.60;;;8.00;;
82163;SDS011;71736;38.734;-9.138;2023-11-18T05:47:10;13.40;;;8.20;;
82163;SDS011;71736;38.734;-9.138;2023-11-18T05:49:39;10.20;;;6.80;;
82163;SDS011;71736;38.734;-9.138;2023-11-18T05:52:04;11.50;;;6.80;;
82163;SDS011;71736;38.734;-9.138;2023-11-18T05:54:32;14.10;;;7.60;;
82163;SDS011;71736;38.734;-9.138;2023-11-18T05:56:57;11.30;;;6.90;;
82163;SDS011;71736;38.734;-9.138;2023-11-18T05:59:24;12.60;;;7.10;;
82163;SDS011;71736;38.734;-9.138;2023-11-18T06:01:52;10.90;;;7.00;;
82163;SDS011;71736;38.734;-9.138;2023-11-18T06:04:18;10.70;;;7.20;;
82163;SDS011;71736;38.734;-9.138;2023-11-18T06:06:43;12.60;;;7.10;;
82163;SDS011;71736;38.734;-9.138;2023-11-18T06:09:08;13.30;;;8.60;;
82163;SDS011;71736;38.734;-9.138;2023-11-18T06:11:43;11.80;;;7.90;;
82163;SDS011;71736;38.734;-9.138;2023-11-18T06:14:10;12.60;;;8.10;;
82163;SDS011;71736;38.734;-9.138;2023-11-18T06:16:37;12.80;;;7.40;;
82163;SDS011;71736;38.734;-9.138;2023-11-18T06:19:05;10.90;;;6.30;;
82163;SDS011;71736;38.734;-9.138;2023-11-18T06:21:31;11.90;;;7.00;;
82163;SDS011;71736;38.734;-9.138;2023-11-18T06:23:57;16.20;;;9.90;;
82163;SDS011;71736;38.734;-9.138;2023-11-18T06:26:24;10.00;;;7.10;;
82163;SDS011;71736;38.734;-9.138;2023-11-18T06:28:54;15.70;;;8.30;;
82163;SDS011;71736;38.734;-9.138;2023-11-18T06:31:20;8.60;;;5.90;;
82163;SDS011;71736;38.734;-9.138;2023-11-18T06:33:46;10.20;;;7.00;;
82163;SDS011;71736;38.734;-9.138;2023-11-18T06:38:38;9.20;;;5.50;;
82163;SDS011;71736;38.734;-9.138;2023-11-18T06:41:04;9.70;;;6.30;;
82163;SDS011;71736;38.734;-9.138;2023-11-18T06:43:34;9.80;;;6.80;;
82163;SDS011;71736;38.734;-9.138;2023-11-18T06:46:19;10.40;;;5.90;;
82163;SDS011;71736;38.734;-9.138;2023-11-18T06:48:47;9.10;;;6.50;;
82163;SDS011;71736;38.734;-9.138;2023-11-18T06:51:14;8.60;;;5.10;;
82163;SDS011;71736;38.734;-9.138;2023-11-18T06:53:41;9.10;;;5.90;;
82163;SDS011;71736;38.734;-9.138;2023-11-18T06:56:07;8.00;;;4.90;;
82163;SDS011;71736;38.734;-9.138;2023-11-18T06:58:33;6.80;;;5.30;;
82163;SDS011;71736;38.734;-9.138;2023-11-18T07:00:59;7.70;;;5.50;;
82163;SDS011;71736;38.734;-9.138;2023-11-18T07:03:24;6.80;;;4.70;;
82163;SDS011;71736;38.734;-9.138;2023-11-18T07:05:50;6.10;;;4.70;;
82163;SDS011;71736;38.734;-9.138;2023-11-18T07:08:16;6.40;;;4.40;;
82163;SDS011;71736;38.734;-9.138;2023-11-18T07:10:41;6.30;;;4.20;;
82163;SDS011;71736;38.734;-9.138;2023-11-18T07:13:07;6.10;;;3.90;;
82163;SDS011;71736;38.734;-9.138;2023-11-18T07:15:34;6.60;;;4.70;;
82163;SDS011;71736;38.734;-9.138;2023-11-18T07:18:01;6.60;;;4.50;;
82163;SDS011;71736;38.734;-9.138;2023-11-18T07:20:27;6.60;;;4.00;;
82163;SDS011;71736;38.734;-9.138;2023-11-18T07:22:52;6.10;;;4.20;;
82163;SDS011;71736;38.734;-9.138;2023-11-18T07:25:19;5.60;;;4.40;;
82163;SDS011;71736;38.734;-9.138;2023-11-18T07:27:45;5.70;;;3.80;;
82163;SDS011;71736;38.734;-9.138;2023-11-18T07:30:11;5.20;;;3.60;;
82163;SDS011;71736;38.734;-9.138;2023-11-18T07:32:36;5.30;;;3.60;;
82163;SDS011;71736;38.734;-9.138;2023-11-18T07:35:02;5.30;;;3.40;;
82163;SDS011;71736;38.734;-9.138;2023-11-18T07:37:28;4.70;;;3.30;;
82163;SDS011;71736;38.734;-9.138;2023-11-18T07:39:57;4.60;;;2.90;;
82163;SDS011;71736;38.734;-9.138;2023-11-18T07:42:26;4.90;;;2.70;;
82163;SDS011;71736;38.734;-9.138;2023-11-18T07:44:51;4.70;;;2.70;;
82163;SDS011;71736;38.734;-9.138;2023-11-18T07:47:17;4.40;;;2.70;;
82163;SDS011;71736;38.734;-9.138;2023-11-18T07:49:44;5.10;;;3.50;;
82163;SDS011;71736;38.734;-9.138;2023-11-18T07:52:11;5.70;;;3.00;;
82163;SDS011;71736;38.734;-9.138;2023-11-18T07:54:36;4.40;;;2.80;;
82163;SDS011;71736;38.734;-9.138;2023-11-18T07:57:03;5.50;;;2.60;;
82163;SDS011;71736;38.734;-9.138;2023-11-18T07:59:35;4.20;;;2.60;;
82163;SDS011;71736;38.734;-9.138;2023-11-18T08:02:01;5.40;;;3.10;;
82163;SDS011;71736;38.734;-9.138;2023-11-18T08:04:30;3.80;;;2.60;;
82163;SDS011;71736;38.734;-9.138;2023-11-18T08:06:56;4.40;;;2.60;;
82163;SDS011;71736;38.734;-9.138;2023-11-18T08:09:21;4.10;;;2.50;;
82163;SDS011;71736;38.734;-9.138;2023-11-18T08:11:50;4.20;;;2.70;;
82163;SDS011;71736;38.734;-9.138;2023-11-18T08:14:16;4.10;;;2.50;;
82163;SDS011;71736;38.734;-9.138;2023-11-18T08:16:42;5.00;;;2.80;;
82163;SDS011;71736;38.734;-9.138;2023-11-18T08:19:07;3.80;;;2.50;;
82163;SDS011;71736;38.734;-9.138;2023-11-18T08:21:36;4.60;;;2.50;;
82163;SDS011;71736;38.734;-9.138;2023-11-18T08:24:06;4.50;;;2.70;;
82163;SDS011;71736;38.734;-9.138;2023-11-18T08:26:33;4.70;;;2.50;;
82163;SDS011;71736;38.734;-9.138;2023-11-18T08:29:00;4.30;;;2.70;;
82163;SDS011;71736;38.734;-9.138;2023-11-18T08:31:26;4.90;;;3.40;;
82163;SDS011;71736;38.734;-9.138;2023-11-18T08:33:52;4.80;;;2.80;;
82163;SDS011;71736;38.734;-9.138;2023-11-18T08:36:20;4.90;;;2.80;;
82163;SDS011;71736;38.734;-9.138;2023-11-18T08:38:48;4.70;;;2.90;;
82163;SDS011;71736;38.734;-9.138;2023-11-18T08:41:14;5.00;;;2.90;;
82163;SDS011;71736;38.734;-9.138;2023-11-18T08:43:40;4.80;;;2.80;;
82163;SDS011;71736;38.734;-9.138;2023-11-18T08:46:06;5.20;;;3.50;;
82163;SDS011;71736;38.734;-9.138;2023-11-18T08:48:32;5.30;;;3.00;;
82163;SDS011;71736;38.734;-9.138;2023-11-18T08:51:01;5.20;;;3.10;;
82163;SDS011;71736;38.734;-9.138;2023-11-18T08:53:26;4.80;;;2.80;;
82163;SDS011;71736;38.734;-9.138;2023-11-18T08:55:53;4.30;;;2.60;;
82163;SDS011;71736;38.734;-9.138;2023-11-18T08:58:21;4.20;;;2.50;;
82163;SDS011;71736;38.734;-9.138;2023-11-18T09:00:51;3.40;;;2.10;;
82163;SDS011;71736;38.734;-9.138;2023-11-18T09:03:18;4.50;;;2.60;;
82163;SDS011;71736;38.734;-9.138;2023-11-18T09:05:53;4.90;;;2.40;;
82163;SDS011;71736;38.734;-9.138;2023-11-18T09:10:52;4.40;;;2.40;;
82163;SDS011;71736;38.734;-9.138;2023-11-18T09:13:20;4.90;;;2.60;;
82163;SDS011;71736;38.734;-9.138;2023-11-18T09:15:57;3.90;;;2.40;;
82163;SDS011;71736;38.734;-9.138;2023-11-18T09:18:27;5.30;;;2.90;;
82163;SDS011;71736;38.734;-9.138;2023-11-18T09:20:55;3.90;;;2.30;;
82163;SDS011;71736;38.734;-9.138;2023-11-18T09:23:24;3.80;;;2.30;;
82163;SDS011;71736;38.734;-9.138;2023-11-18T09:25:50;4.50;;;2.40;;
82163;SDS011;71736;38.734;-9.138;2023-11-18T09:28:19;4.10;;;2.10;;
82163;SDS011;71736;38.734;-9.138;2023-11-18T09:30:45;4.60;;;2.80;;
82163;SDS011;71736;38.734;-9.138;2023-11-18T09:33:25;4.40;;;3.00;;
82163;SDS011;71736;38.734;-9.138;2023-11-18T09:35:57;4.60;;;2.20;;
82163;SDS011;71736;38.734;-9.138;2023-11-18T09:38:24;4.50;;;2.80;;
82163;SDS011;71736;38.734;-9.138;2023-11-18T09:40:53;4.60;;;2.60;;
82163;SDS011;71736;38.734;-9.138;2023-11-18T09:43:19;4.90;;;2.50;;
82163;SDS011;71736;38.734;-9.138;2023-11-18T09:45:56;4.70;;;2.70;;
82163;SDS011;71736;38.734;-9.138;2023-11-18T09:48:22;4.90;;;3.00;;
82163;SDS011;71736;38.734;-9.138;2023-11-18T09:50:53;4.90;;;2.70;;
82163;SDS011;71736;38.734;-9.138;2023-11-18T09:53:22;5.30;;;2.80;;
82163;SDS011;71736;38.734;-9.138;2023-11-18T09:56:03;5.00;;;2.60;;
82163;SDS011;71736;38.734;-9.138;2023-11-18T09:58:40;5.20;;;2.80;;
82163;SDS011;71736;38.734;-9.138;2023-11-18T10:01:14;4.60;;;3.00;;
82163;SDS011;71736;38.734;-9.138;2023-11-18T10:03:43;4.60;;;3.00;;
82163;SDS011;71736;38.734;-9.138;2023-11-18T10:06:12;6.50;;;3.10;;
82163;SDS011;71736;38.734;-9.138;2023-11-18T10:08:40;4.80;;;2.70;;
82163;SDS011;71736;38.734;-9.138;2023-11-18T10:11:11;4.60;;;3.10;;
82163;SDS011;71736;38.734;-9.138;2023-11-18T10:13:38;5.30;;;2.90;;
82163;SDS011;71736;38.734;-9.138;2023-11-18T10:16:06;4.70;;;3.00;;
82163;SDS011;71736;38.734;-9.138;2023-11-18T10:18:33;5.10;;;3.00;;
82163;SDS011;71736;38.734;-9.138;2023-11-18T10:21:02;5.50;;;3.20;;
82163;SDS011;71736;38.734;-9.138;2023-11-18T10:23:33;5.30;;;3.30;;
82163;SDS011;71736;38.734;-9.138;2023-11-18T10:25:59;4.90;;;3.00;;
82163;SDS011;71736;38.734;-9.138;2023-11-18T10:28:30;5.20;;;3.10;;
82163;SDS011;71736;38.734;-9.138;2023-11-18T10:31:05;6.90;;;3.40;;
82163;SDS011;71736;38.734;-9.138;2023-11-18T10:33:34;4.50;;;2.90;;
82163;SDS011;71736;38.734;-9.138;2023-11-18T10:36:01;5.80;;;3.10;;
82163;SDS011;71736;38.734;-9.138;2023-11-18T10:38:30;4.90;;;2.80;;
82163;SDS011;71736;38.734;-9.138;2023-11-18T10:40:57;4.40;;;2.90;;
82163;SDS011;71736;38.734;-9.138;2023-11-18T10:43:27;6.20;;;3.10;;
82163;SDS011;71736;38.734;-9.138;2023-11-18T10:48:40;4.70;;;3.20;;
82163;SDS011;71736;38.734;-9.138;2023-11-18T10:51:10;5.40;;;3.40;;
82163;SDS011;71736;38.734;-9.138;2023-11-18T10:53:37;4.40;;;2.60;;
82163;SDS011;71736;38.734;-9.138;2023-11-18T10:56:45;4.20;;;2.90;;
82163;SDS011;71736;38.734;-9.138;2023-11-18T10:59:12;4.10;;;2.50;;
82163;SDS011;71736;38.734;-9.138;2023-11-18T11:01:41;4.40;;;2.70;;
82163;SDS011;71736;38.734;-9.138;2023-11-18T11:04:11;4.00;;;2.50;;
82163;SDS011;71736;38.734;-9.138;2023-11-18T11:06:42;4.40;;;2.40;;
82163;SDS011;71736;38.734;-9.138;2023-11-18T11:09:08;4.60;;;2.50;;
82163;SDS011;71736;38.734;-9.138;2023-11-18T11:11:48;5.70;;;2.40;;
82163;SDS011;71736;38.734;-9.138;2023-11-18T11:14:15;4.50;;;2.90;;
82163;SDS011;71736;38.734;-9.138;2023-11-18T11:16:44;4.90;;;2.80;;
82163;SDS011;71736;38.734;-9.138;2023-11-18T11:19:24;4.10;;;2.60;;
82163;SDS011;71736;38.734;-9.138;2023-11-18T11:22:04;4.60;;;2.90;;
82163;SDS011;71736;38.734;-9.138;2023-11-18T11:27:36;4.00;;;2.30;;
82163;SDS011;71736;38.734;-9.138;2023-11-18T11:30:22;4.90;;;3.00;;
82163;SDS011;71736;38.734;-9.138;2023-11-18T11:32:53;4.90;;;3.20;;
82163;SDS011;71736;38.734;-9.138;2023-11-18T11:35:30;5.40;;;3.60;;
82163;SDS011;71736;38.734;-9.138;2023-11-18T11:37:58;6.40;;;3.50;;
82163;SDS011;71736;38.734;-9.138;2023-11-18T11:40:30;5.10;;;3.40;;
82163;SDS011;71736;38.734;-9.138;2023-11-18T11:42:56;5.90;;;3.50;;
82163;SDS011;71736;38.734;-9.138;2023-11-18T11:45:23;5.90;;;3.40;;
82163;SDS011;71736;38.734;-9.138;2023-11-18T11:47:54;6.20;;;3.50;;
82163;SDS011;71736;38.734;-9.138;2023-11-18T11:53:10;6.80;;;4.10;;
82163;SDS011;71736;38.734;-9.138;2023-11-18T11:55:45;6.20;;;3.50;;
82163;SDS011;71736;38.734;-9.138;2023-11-18T11:58:26;6.00;;;4.00;;
82163;SDS011;71736;38.734;-9.138;2023-11-18T12:00:52;5.90;;;3.60;;
82163;SDS011;71736;38.734;-9.138;2023-11-18T12:03:21;6.00;;;3.70;;
82163;SDS011;71736;38.734;-9.138;2023-11-18T12:05:48;6.50;;;3.60;;
82163;SDS011;71736;38.734;-9.138;2023-11-18T12:08:17;6.70;;;4.40;;
82163;SDS011;71736;38.734;-9.138;2023-11-18T12:10:53;6.40;;;4.50;;
82163;SDS011;71736;38.734;-9.138;2023-11-18T12:13:21;7.20;;;3.90;;
82163;SDS011;71736;38.734;-9.138;2023-11-18T12:18:30;5.90;;;3.90;;
82163;SDS011;71736;38.734;-9.138;2023-11-18T12:21:02;5.30;;;3.70;;
82163;SDS011;71736;38.734;-9.138;2023-11-18T12:23:29;6.30;;;3.80;;
82163;SDS011;71736;38.734;-9.138;2023-11-18T12:25:57;8.10;;;4.60;;
82163;SDS011;71736;38.734;-9.138;2023-11-18T12:28:29;6.10;;;3.90;;
82163;SDS011;71736;38.734;-9.138;2023-11-18T12:31:02;7.10;;;4.20;;
82163;SDS011;71736;38.734;-9.138;2023-11-18T12:33:52;5.60;;;3.70;;
82163;SDS011;71736;38.734;-9.138;2023-11-18T12:42:07;6.80;;;3.90;;
82163;SDS011;71736;38.734;-9.138;2023-11-18T12:47:39;6.50;;;4.10;;
82163;SDS011;71736;38.734;-9.138;2023-11-18T12:50:09;7.20;;;3.90;;
82163;SDS011;71736;38.734;-9.138;2023-11-18T12:52:43;6.30;;;4.10;;
82163;SDS011;71736;38.734;-9.138;2023-11-18T12:55:11;6.60;;;3.90;;
82163;SDS011;71736;38.734;-9.138;2023-11-18T12:57:47;7.50;;;4.00;;
82163;SDS011;71736;38.734;-9.138;2023-11-18T13:00:14;6.00;;;4.30;;
82163;SDS011;71736;38.734;-9.138;2023-11-18T13:02:43;6.90;;;4.10;;
82163;SDS011;71736;38.734;-9.138;2023-11-18T13:05:09;6.50;;;3.80;;
82163;SDS011;71736;38.734;-9.138;2023-11-18T13:07:35;6.60;;;4.00;;
82163;SDS011;71736;38.734;-9.138;2023-11-18T13:10:02;7.30;;;4.30;;
82163;SDS011;71736;38.734;-9.138;2023-11-18T13:12:29;6.50;;;3.90;;
82163;SDS011;71736;38.734;-9.138;2023-11-18T13:14:55;5.70;;;3.80;;
82163;SDS011;71736;38.734;-9.138;2023-11-18T13:17:21;6.80;;;4.50;;
82163;SDS011;71736;38.734;-9.138;2023-11-18T13:19:47;7.20;;;4.50;;
82163;SDS011;71736;38.734;-9.138;2023-11-18T13:22:16;5.60;;;3.80;;
82163;SDS011;71736;38.734;-9.138;2023-11-18T13:24:45;8.70;;;6.10;;
82163;SDS011;71736;38.734;-9.138;2023-11-18T13:27:15;6.10;;;4.70;;
82163;SDS011;71736;38.734;-9.138;2023-11-18T13:29:45;8.50;;;4.90;;
82163;SDS011;71736;38.734;-9.138;2023-11-18T13:32:14;6.70;;;4.60;;
82163;SDS011;71736;38.734;-9.138;2023-11-18T13:34:40;7.60;;;5.00;;
82163;SDS011;71736;38.734;-9.138;2023-11-18T13:39:33;6.50;;;4.00;;
82163;SDS011;71736;38.734;-9.138;2023-11-18T13:42:19;7.90;;;4.20;;
82163;SDS011;71736;38.734;-9.138;2023-11-18T13:44:47;7.10;;;4.50;;
82163;SDS011;71736;38.734;-9.138;2023-11-18T13:47:16;7.00;;;4.30;;
82163;SDS011;71736;38.734;-9.138;2023-11-18T13:49:42;6.30;;;3.90;;
82163;SDS011;71736;38.734;-9.138;2023-11-18T13:52:09;7.80;;;4.50;;
82163;SDS011;71736;38.734;-9.138;2023-11-18T13:54:37;7.00;;;4.60;;
82163;SDS011;71736;38.734;-9.138;2023-11-18T13:59:29;8.20;;;4.70;;
82163;SDS011;71736;38.734;-9.138;2023-11-18T14:01:55;6.10;;;4.30;;
82163;SDS011;71736;38.734;-9.138;2023-11-18T14:04:26;6.10;;;4.30;;
82163;SDS011;71736;38.734;-9.138;2023-11-18T14:06:53;7.50;;;5.00;;
82163;SDS011;71736;38.734;-9.138;2023-11-18T14:09:21;8.00;;;5.40;;
82163;SDS011;71736;38.734;-9.138;2023-11-18T14:11:53;8.30;;;5.90;;
82163;SDS011;71736;38.734;-9.138;2023-11-18T14:14:25;7.00;;;4.10;;
82163;SDS011;71736;38.734;-9.138;2023-11-18T14:16:52;7.40;;;4.50;;
82163;SDS011;71736;38.734;-9.138;2023-11-18T14:19:27;9.80;;;5.20;;
82163;SDS011;71736;38.734;-9.138;2023-11-18T14:21:54;6.80;;;4.60;;
82163;SDS011;71736;38.734;-9.138;2023-11-18T14:24:20;8.00;;;4.40;;
82163;SDS011;71736;38.734;-9.138;2023-11-18T14:26:48;8.90;;;4.50;;
82163;SDS011;71736;38.734;-9.138;2023-11-18T14:29:15;6.00;;;4.20;;
82163;SDS011;71736;38.734;-9.138;2023-11-18T14:31:41;6.80;;;4.30;;
82163;SDS011;71736;38.734;-9.138;2023-11-18T14:34:07;6.70;;;4.60;;
82163;SDS011;71736;38.734;-9.138;2023-11-18T14:36:36;7.90;;;4.70;;
82163;SDS011;71736;38.734;-9.138;2023-11-18T14:39:02;11.20;;;5.70;;
82163;SDS011;71736;38.734;-9.138;2023-11-18T14:41:28;9.20;;;5.10;;
82163;SDS011;71736;38.734;-9.138;2023-11-18T14:43:55;7.80;;;5.50;;
82163;SDS011;71736;38.734;-9.138;2023-11-18T14:46:22;8.00;;;4.90;;
82163;SDS011;71736;38.734;-9.138;2023-11-18T14:48:48;7.30;;;4.50;;
82163;SDS011;71736;38.734;-9.138;2023-11-18T14:51:14;6.30;;;4.20;;
82163;SDS011;71736;38.734;-9.138;2023-11-18T14:53:39;6.10;;;4.60;;
82163;SDS011;71736;38.734;-9.138;2023-11-18T14:56:05;7.60;;;4.40;;
82163;SDS011;71736;38.734;-9.138;2023-11-18T14:58:32;6.70;;;4.50;;
82163;SDS011;71736;38.734;-9.138;2023-11-18T15:00:58;6.30;;;3.90;;
82163;SDS011;71736;38.734;-9.138;2023-11-18T15:03:25;6.20;;;4.20;;
82163;SDS011;71736;38.734;-9.138;2023-11-18T15:05:51;6.50;;;3.90;;
82163;SDS011;71736;38.734;-9.138;2023-11-18T15:08:16;4.80;;;3.70;;
82163;SDS011;71736;38.734;-9.138;2023-11-18T15:10:42;6.60;;;4.50;;
82163;SDS011;71736;38.734;-9.138;2023-11-18T15:15:40;7.30;;;4.30;;
82163;SDS011;71736;38.734;-9.138;2023-11-18T15:18:08;5.70;;;4.00;;
82163;SDS011;71736;38.734;-9.138;2023-11-18T15:20:35;6.70;;;4.70;;
82163;SDS011;71736;38.734;-9.138;2023-11-18T15:23:02;6.80;;;4.40;;